createdAt,value
2018-03-24T00:00:42.988Z,1.91
2018-03-24T00:03:11.005Z,2.10
2018-03-24T00:05:39.126Z,1.97
2018-03-24T00:08:07.226Z,1.93
2018-03-24T00:10:35.227Z,2.09
2018-03-24T00:13:03.366Z,2.03
2018-03-24T00:15:31.433Z,1.93
2018-03-24T00:17:59.474Z,1.96
2018-03-24T00:20:27.483Z,1.98
2018-03-24T00:22:55.646Z,1.90
2018-03-24T00:25:24.365Z,1.99
2018-03-24T00:27:52.376Z,2.06
2018-03-24T00:30:20.392Z,1.82
2018-03-24T00:32:48.863Z,1.75
2018-03-24T00:35:16.937Z,1.79
2018-03-24T00:37:45.098Z,1.80
2018-03-24T00:40:13.165Z,1.92
2018-03-24T00:42:41.153Z,1.73
2018-03-24T00:45:09.150Z,1.85
2018-03-24T00:47:37.141Z,1.94
2018-03-24T00:50:05.152Z,1.88
2018-03-24T00:52:33.170Z,1.81
2018-03-24T00:55:01.186Z,1.72
2018-03-24T00:57:29.172Z,1.78
2018-03-24T00:59:57.209Z,1.73
2018-03-24T01:02:25.248Z,1.78
2018-03-24T01:04:53.280Z,1.67
2018-03-24T01:07:21.287Z,1.65
2018-03-24T01:09:49.322Z,1.70
2018-03-24T01:12:17.794Z,1.70
2018-03-24T01:14:45.898Z,1.68
2018-03-24T01:17:13.899Z,1.57
2018-03-24T01:19:41.925Z,1.67
2018-03-24T01:22:09.927Z,1.47
2018-03-24T01:24:37.944Z,1.62
2018-03-24T01:27:06.046Z,1.70
2018-03-24T01:29:34.089Z,1.70
2018-03-24T01:32:02.185Z,1.76
2018-03-24T01:34:30.930Z,1.64
2018-03-24T01:36:58.917Z,1.69
2018-03-24T01:39:27.079Z,1.75
2018-03-24T01:41:55.070Z,1.57
2018-03-24T01:44:23.849Z,1.68
2018-03-24T01:46:51.963Z,1.79
2018-03-24T01:49:20.052Z,1.75
2018-03-24T01:51:48.198Z,1.62
2018-03-24T01:54:16.195Z,1.68
2018-03-24T01:56:44.308Z,1.66
2018-03-24T01:59:12.370Z,1.73
2018-03-24T02:01:40.473Z,1.72
2018-03-24T02:04:08.534Z,1.68
2018-03-24T02:06:36.678Z,1.79
2018-03-24T02:09:04.713Z,1.84
2018-03-24T02:11:32.774Z,1.72
2018-03-24T02:14:01.485Z,1.78
2018-03-24T02:16:29.535Z,1.80
2018-03-24T02:18:57.965Z,1.77
2018-03-24T02:21:26.030Z,1.82
2018-03-24T02:23:54.105Z,1.83
2018-03-24T02:26:22.132Z,1.83
2018-03-24T02:28:50.160Z,1.81
2018-03-24T02:31:18.193Z,1.87
2018-03-24T02:33:46.201Z,1.90
2018-03-24T02:36:14.231Z,1.82
2018-03-24T02:38:42.257Z,1.87
2018-03-24T02:41:10.316Z,1.97
2018-03-24T02:43:38.669Z,1.93
2018-03-24T02:46:07.341Z,1.93
2018-03-24T02:48:35.500Z,1.82
2018-03-24T02:51:03.589Z,1.83
2018-03-24T02:53:31.640Z,1.97
2018-03-24T02:56:00.226Z,2.01
2018-03-24T02:58:28.672Z,2.01
2018-03-24T03:00:56.711Z,1.91
2018-03-24T03:03:24.838Z,1.84
2018-03-24T03:05:52.853Z,1.90
2018-03-24T03:08:21.466Z,1.96
2018-03-24T03:10:49.469Z,1.91
2018-03-24T03:13:17.528Z,1.88
2018-03-24T03:15:45.573Z,1.80
2018-03-24T03:18:13.589Z,1.72
2018-03-24T03:20:41.593Z,1.79
2018-03-24T03:23:09.593Z,1.75
2018-03-24T03:25:38.021Z,1.80
2018-03-24T03:28:06.070Z,1.83
2018-03-24T03:30:35.887Z,2.00
2018-03-24T03:33:03.947Z,1.92
2018-03-24T03:35:31.957Z,1.90
2018-03-24T03:37:59.969Z,1.87
2018-03-24T03:40:27.988Z,1.77
2018-03-24T03:42:56.007Z,1.75
2018-03-24T03:45:24.050Z,1.87
2018-03-24T03:47:52.063Z,1.87
2018-03-24T03:50:20.112Z,1.73
2018-03-24T03:52:48.111Z,1.82
2018-03-24T03:55:16.175Z,1.83
2018-03-24T03:57:44.184Z,1.84
2018-03-24T04:00:12.195Z,1.83
2018-03-24T04:02:40.245Z,1.85
2018-03-24T04:05:08.200Z,1.76
2018-03-24T04:07:36.155Z,1.75
2018-03-24T04:10:04.175Z,1.76
2018-03-24T04:12:32.325Z,1.70
2018-03-24T04:15:00.296Z,1.81
2018-03-24T04:17:28.744Z,1.69
2018-03-24T04:19:56.672Z,1.73
2018-03-24T04:22:24.749Z,1.65
2018-03-24T04:24:52.713Z,1.66
2018-03-24T04:27:20.644Z,1.63
2018-03-24T04:29:49.470Z,1.64
2018-03-24T04:32:17.386Z,1.65
2018-03-24T04:34:49.081Z,1.75
2018-03-24T04:37:17.001Z,1.81
2018-03-24T04:39:45.102Z,1.73
2018-03-24T04:42:13.021Z,1.66
2018-03-24T04:44:41.031Z,1.72
2018-03-24T04:47:08.952Z,1.68
2018-03-24T04:49:36.977Z,1.83
2018-03-24T04:52:04.941Z,1.94
2018-03-24T04:54:32.858Z,1.72
2018-03-24T04:57:00.823Z,1.72
2018-03-24T04:59:28.754Z,1.75
2018-03-24T05:01:56.690Z,1.79
2018-03-24T05:04:24.631Z,1.67
2018-03-24T05:06:52.552Z,1.64
2018-03-24T05:09:20.601Z,1.61
2018-03-24T05:11:48.545Z,1.73
2018-03-24T05:14:16.639Z,1.67
2018-03-24T05:16:44.576Z,1.67
2018-03-24T05:19:12.531Z,1.82
2018-03-24T05:21:40.474Z,1.71
2018-03-24T05:24:08.465Z,1.75
2018-03-24T05:26:36.416Z,1.76
2018-03-24T05:29:04.341Z,1.86
2018-03-24T05:31:32.303Z,1.69
2018-03-24T05:34:00.223Z,1.72
2018-03-24T05:36:28.160Z,1.63
2018-03-24T05:38:56.097Z,1.69
2018-03-24T05:41:24.147Z,1.71
2018-03-24T05:43:52.755Z,1.65
2018-03-24T05:46:20.731Z,1.65
2018-03-24T05:48:48.667Z,1.61
2018-03-24T05:51:16.636Z,1.79
2018-03-24T05:53:44.574Z,1.87
2018-03-24T05:56:12.567Z,1.87
2018-03-24T05:58:40.574Z,1.88
2018-03-24T06:01:08.510Z,1.86
2018-03-24T06:03:36.466Z,1.96
2018-03-24T06:06:04.409Z,1.93
2018-03-24T06:08:33.233Z,1.96
2018-03-24T06:11:01.152Z,2.00
2018-03-24T06:13:29.106Z,1.94
2018-03-24T06:15:57.036Z,1.88
2018-03-24T06:18:25.154Z,1.85
2018-03-24T06:20:53.110Z,1.81
2018-03-24T06:23:21.029Z,1.90
2018-03-24T06:25:48.956Z,1.96
2018-03-24T06:28:16.921Z,1.82
2018-03-24T06:30:44.821Z,1.95
2018-03-24T06:33:12.780Z,2.02
2018-03-24T06:35:40.720Z,2.20
2018-03-24T06:38:08.682Z,2.08
2018-03-24T06:40:36.569Z,2.21
2018-03-24T06:43:04.508Z,2.26
2018-03-24T06:45:33.280Z,2.37
2018-03-24T06:48:01.299Z,2.31
2018-03-24T06:50:29.263Z,2.36
2018-03-24T06:52:57.222Z,2.44
2018-03-24T06:55:25.230Z,2.40
2018-03-24T06:57:53.159Z,2.43
2018-03-24T07:00:21.289Z,2.42
2018-03-24T07:02:49.282Z,2.34
2018-03-24T07:05:17.202Z,2.43
2018-03-24T07:07:45.222Z,2.46
2018-03-24T07:10:13.107Z,2.37
2018-03-24T07:12:41.037Z,2.35
2018-03-24T07:15:09.096Z,2.42
2018-03-24T07:17:37.580Z,2.50
2018-03-24T07:20:05.508Z,2.56
2018-03-24T07:22:33.432Z,2.59
2018-03-24T07:25:01.427Z,2.53
2018-03-24T07:27:29.376Z,2.71
2018-03-24T07:29:57.328Z,2.82
2018-03-24T07:32:25.257Z,2.82
2018-03-24T07:34:53.202Z,2.85
2018-03-24T07:37:21.125Z,2.82
2018-03-24T07:39:49.188Z,3.03
2018-03-24T07:42:17.103Z,3.08
2018-03-24T07:44:45.035Z,3.02
2018-03-24T07:47:12.972Z,2.98
2018-03-24T07:49:42.286Z,2.95
2018-03-24T07:52:10.309Z,2.94
2018-03-24T07:54:38.253Z,2.67
2018-03-24T07:57:06.586Z,2.67
2018-03-24T07:59:34.549Z,2.90
2018-03-24T08:02:02.514Z,2.90
2018-03-24T08:04:30.463Z,2.99
2018-03-24T08:06:58.378Z,2.98
2018-03-24T08:09:27.297Z,3.03
2018-03-24T08:11:55.241Z,3.08
2018-03-24T08:14:23.203Z,3.13
2018-03-24T08:16:51.334Z,3.44
2018-03-24T08:19:19.226Z,3.57
2018-03-24T08:21:47.228Z,3.49
2018-03-24T08:24:15.196Z,3.65
2018-03-24T08:26:43.232Z,3.87
2018-03-24T08:29:11.163Z,3.92
2018-03-24T08:31:39.277Z,4.05
2018-03-24T08:34:07.262Z,4.13
2018-03-24T08:36:35.246Z,4.47
2018-03-24T08:39:03.213Z,4.46
2018-03-24T08:41:31.155Z,4.84
2018-03-24T08:43:59.099Z,4.97
2018-03-24T08:46:27.094Z,5.01
2018-03-24T08:48:55.068Z,4.75
2018-03-24T08:51:23.162Z,4.92
2018-03-24T08:56:17.319Z,5.41
2018-03-24T08:58:46.721Z,5.56
2018-03-24T09:01:14.771Z,5.23
2018-03-24T09:03:42.741Z,5.19
2018-03-24T09:06:10.707Z,5.24
2018-03-24T09:08:38.765Z,5.26
2018-03-24T09:11:07.640Z,5.39
2018-03-24T09:13:35.601Z,5.40
2018-03-24T09:16:03.730Z,5.56
2018-03-24T09:18:33.072Z,5.64
2018-03-24T09:21:01.220Z,5.78
2018-03-24T09:23:29.519Z,5.75
2018-03-24T09:26:01.909Z,5.68
2018-03-24T09:28:31.332Z,5.76
2018-03-24T09:31:02.249Z,5.72
2018-03-24T09:33:30.269Z,5.83
2018-03-24T09:35:58.316Z,5.95
2018-03-24T09:38:26.368Z,6.01
2018-03-24T09:40:54.637Z,6.08
2018-03-24T09:43:22.650Z,6.31
2018-03-24T09:45:51.510Z,6.26
2018-03-24T09:48:19.775Z,6.23
2018-03-24T09:50:47.820Z,6.52
2018-03-24T09:53:16.962Z,6.38
2018-03-24T09:55:45.194Z,6.42
2018-03-24T09:58:14.156Z,6.66
2018-03-24T10:00:42.156Z,6.68
2018-03-24T10:03:10.767Z,6.72
2018-03-24T10:05:39.625Z,6.90
2018-03-24T10:08:07.571Z,7.00
2018-03-24T10:10:36.012Z,7.09
2018-03-24T10:13:04.131Z,7.34
2018-03-24T10:15:32.791Z,7.42
2018-03-24T10:18:01.947Z,7.39
2018-03-24T10:23:50.206Z,7.27
2018-03-24T10:26:20.268Z,7.32
2018-03-24T10:28:49.449Z,7.32
2018-03-24T10:31:17.339Z,7.65
2018-03-24T10:33:50.797Z,7.72
2018-03-24T10:36:18.741Z,7.53
2018-03-24T10:38:48.028Z,7.45
2018-03-24T10:41:15.940Z,7.55
2018-03-24T10:43:43.851Z,7.87
2018-03-24T10:46:11.794Z,8.06
2018-03-24T10:48:39.728Z,8.07
2018-03-24T10:51:08.259Z,8.23
2018-03-24T10:53:36.156Z,8.19
2018-03-24T10:56:04.149Z,8.01
2018-03-24T10:58:32.044Z,8.31
2018-03-24T11:04:03.156Z,8.74
2018-03-24T11:06:31.093Z,9.01
2018-03-24T11:08:59.038Z,8.87
2018-03-24T11:11:26.963Z,9.22
2018-03-24T11:13:54.898Z,9.56
2018-03-24T11:16:22.839Z,9.93
2018-03-24T11:18:50.776Z,10.19
2018-03-24T11:21:18.753Z,10.68
2018-03-24T11:23:46.670Z,11.09
2018-03-24T11:26:14.637Z,11.16
2018-03-24T11:28:42.601Z,11.26
2018-03-24T11:31:10.554Z,11.36
2018-03-24T11:33:38.458Z,11.39
2018-03-24T11:36:06.479Z,11.23
2018-03-24T11:38:34.461Z,11.14
2018-03-24T11:41:02.430Z,11.39
2018-03-24T11:43:30.359Z,11.20
2018-03-24T11:45:58.339Z,11.14
2018-03-24T11:48:26.256Z,11.18
2018-03-24T11:50:54.292Z,11.29
2018-03-24T11:53:28.001Z,11.38
2018-03-24T11:55:55.949Z,11.55
2018-03-24T11:58:23.877Z,11.61
2018-03-24T12:00:51.809Z,12.07
2018-03-24T12:03:19.757Z,12.16
2018-03-24T12:05:47.674Z,12.15
2018-03-24T12:08:15.651Z,12.23
2018-03-24T12:10:43.533Z,12.53
2018-03-24T12:13:13.146Z,12.21
2018-03-24T12:15:41.090Z,11.93
2018-03-24T12:18:09.051Z,12.11
2018-03-24T12:20:37.079Z,12.50
2018-03-24T12:23:05.006Z,12.84
2018-03-24T12:25:33.080Z,12.63
2018-03-24T12:28:00.952Z,12.12
2018-03-24T12:30:28.914Z,12.22
2018-03-24T12:32:56.872Z,12.16
2018-03-24T12:35:24.775Z,12.11
2018-03-24T12:37:52.706Z,12.14
2018-03-24T12:40:20.642Z,11.79
2018-03-24T12:42:48.669Z,12.26
2018-03-24T12:45:17.613Z,12.20
2018-03-24T12:47:45.566Z,12.25
2018-03-24T12:50:13.479Z,12.51
2018-03-24T12:52:43.247Z,12.50
2018-03-24T12:55:11.189Z,12.79
2018-03-24T12:57:39.124Z,12.77
2018-03-24T13:00:07.157Z,12.52
2018-03-24T13:02:35.063Z,12.51
2018-03-24T13:05:03.011Z,12.15
2018-03-24T13:07:31.075Z,12.32
2018-03-24T13:09:59.004Z,12.33
2018-03-24T13:12:26.917Z,13.01
2018-03-24T13:14:54.876Z,13.17
2018-03-24T13:17:22.770Z,13.74
2018-03-24T13:19:50.726Z,13.88
2018-03-24T13:22:18.645Z,14.40
2018-03-24T13:24:46.621Z,14.69
2018-03-24T13:27:14.544Z,14.84
2018-03-24T13:29:42.533Z,14.85
2018-03-24T13:32:10.470Z,14.58
2018-03-24T13:34:38.470Z,13.95
2018-03-24T13:37:06.413Z,13.79
2018-03-24T13:39:34.324Z,13.80
2018-03-24T13:42:02.283Z,13.45
2018-03-24T13:44:30.270Z,13.19
2018-03-24T13:46:58.220Z,13.23
2018-03-24T13:49:26.407Z,13.23
2018-03-24T13:51:54.363Z,13.47
2018-03-24T13:54:22.403Z,13.15
2018-03-24T13:56:50.376Z,13.19
2018-03-24T13:59:18.297Z,12.97
2018-03-24T14:01:46.233Z,12.82
2018-03-24T14:04:14.474Z,12.65
2018-03-24T14:06:42.425Z,12.73
2018-03-24T14:09:10.354Z,12.73
2018-03-24T14:11:38.794Z,12.51
2018-03-24T14:14:06.925Z,12.43
2018-03-24T14:16:34.849Z,12.48
2018-03-24T14:19:02.855Z,12.10
2018-03-24T14:21:30.828Z,12.06
2018-03-24T14:23:58.850Z,12.25
2018-03-24T14:26:26.786Z,12.35
2018-03-24T14:28:54.716Z,12.37
2018-03-24T14:31:22.669Z,12.44
2018-03-24T14:33:50.753Z,12.42
2018-03-24T14:36:18.661Z,11.94
2018-03-24T14:38:46.998Z,11.92
2018-03-24T14:41:15.406Z,12.00
2018-03-24T14:43:43.330Z,11.90
2018-03-24T14:46:11.415Z,11.78
2018-03-24T14:48:39.442Z,11.71
2018-03-24T14:51:07.404Z,11.63
2018-03-24T14:53:36.051Z,11.56
2018-03-24T14:56:03.984Z,11.60
2018-03-24T14:58:32.018Z,11.46
2018-03-24T15:00:59.949Z,11.31
2018-03-24T15:03:28.100Z,11.23
2018-03-24T15:05:56.035Z,11.11
2018-03-24T15:08:23.970Z,11.00
2018-03-24T15:10:51.910Z,11.03
2018-03-24T15:13:19.824Z,10.98
2018-03-24T15:15:47.756Z,10.85
2018-03-24T15:18:15.703Z,10.98
2018-03-24T15:20:43.638Z,10.77
2018-03-24T15:23:11.598Z,10.71
2018-03-24T15:25:39.597Z,10.66
2018-03-24T15:28:08.531Z,10.62
2018-03-24T15:30:48.273Z,10.72
2018-03-24T15:33:27.987Z,10.51
2018-03-24T15:36:07.664Z,10.31
2018-03-24T15:38:36.328Z,10.33
2018-03-24T15:41:04.261Z,10.31
2018-03-24T15:43:32.256Z,10.30
2018-03-24T15:46:01.676Z,10.33
2018-03-24T15:48:29.649Z,10.34
2018-03-24T15:50:57.789Z,10.11
2018-03-24T15:53:25.950Z,10.18
2018-03-24T15:55:54.742Z,10.14
2018-03-24T15:58:22.757Z,10.12
2018-03-24T16:00:50.704Z,9.78
2018-03-24T16:03:18.637Z,9.90
2018-03-24T16:05:46.609Z,9.89
2018-03-24T16:08:14.728Z,9.84
2018-03-24T16:10:43.773Z,9.94
2018-03-24T16:13:11.747Z,9.84
2018-03-24T16:15:39.704Z,9.85
2018-03-24T16:18:07.975Z,9.86
2018-03-24T16:20:35.904Z,9.72
2018-03-24T16:23:03.850Z,9.66
2018-03-24T16:25:31.898Z,9.59
2018-03-24T16:27:59.808Z,9.35
2018-03-24T16:30:27.770Z,9.51
2018-03-24T16:32:55.727Z,9.47
2018-03-24T16:35:23.985Z,9.33
2018-03-24T16:37:52.101Z,9.52
2018-03-24T16:40:20.122Z,9.27
2018-03-24T16:42:48.032Z,9.35
2018-03-24T16:45:15.943Z,9.20
2018-03-24T16:47:43.857Z,9.30
2018-03-24T16:50:11.816Z,9.26
2018-03-24T16:52:39.712Z,9.24
2018-03-24T16:55:07.657Z,9.21
2018-03-24T16:57:35.604Z,9.19
2018-03-24T17:00:03.580Z,9.15
2018-03-24T17:02:31.485Z,9.06
2018-03-24T17:04:59.411Z,8.97
2018-03-24T17:07:27.362Z,8.98
2018-03-24T17:09:55.255Z,8.94
2018-03-24T17:12:23.170Z,8.93
2018-03-24T17:14:51.121Z,8.76
2018-03-24T17:17:19.999Z,8.78
2018-03-24T17:19:48.057Z,8.83
2018-03-24T17:22:15.978Z,8.74
2018-03-24T17:24:43.908Z,8.85
2018-03-24T17:27:11.826Z,8.88
2018-03-24T17:29:39.762Z,8.83
2018-03-24T17:32:07.713Z,8.70
2018-03-24T17:34:35.655Z,8.60
2018-03-24T17:37:03.595Z,8.62
2018-03-24T17:39:31.682Z,8.65
2018-03-24T17:41:59.665Z,8.42
2018-03-24T17:44:27.668Z,8.46
2018-03-24T17:46:55.571Z,8.39
2018-03-24T17:49:23.566Z,8.32
2018-03-24T17:51:51.592Z,8.21
2018-03-24T17:54:19.537Z,8.07
2018-03-24T17:56:47.629Z,8.13
2018-03-24T17:59:15.553Z,8.12
2018-03-24T18:01:43.489Z,8.16
2018-03-24T18:04:11.493Z,8.03
2018-03-24T18:06:39.448Z,7.87
2018-03-24T18:09:07.412Z,7.90
2018-03-24T18:11:35.365Z,7.62
2018-03-24T18:14:03.314Z,7.70
2018-03-24T18:16:31.238Z,7.68
2018-03-24T18:18:59.255Z,7.47
2018-03-24T18:21:27.259Z,7.44
2018-03-24T18:23:55.240Z,7.33
2018-03-24T18:26:23.167Z,7.41
2018-03-24T18:28:51.113Z,7.31
2018-03-24T18:31:19.032Z,7.17
2018-03-24T18:33:46.969Z,7.07
2018-03-24T18:36:14.940Z,7.13
2018-03-24T18:38:42.886Z,6.91
2018-03-24T18:41:10.929Z,6.99
2018-03-24T18:43:38.951Z,6.99
2018-03-24T18:46:06.863Z,6.91
2018-03-24T18:48:34.798Z,6.89
2018-03-24T18:51:02.714Z,6.80
2018-03-24T18:53:30.726Z,6.79
2018-03-24T18:55:58.697Z,6.66
2018-03-24T18:58:26.617Z,6.64
2018-03-24T19:00:54.657Z,6.65
2018-03-24T19:03:22.577Z,6.65
2018-03-24T19:05:50.595Z,6.73
2018-03-24T19:08:18.577Z,6.75
2018-03-24T19:10:46.539Z,7.08
2018-03-24T19:13:14.530Z,7.35
2018-03-24T19:15:42.556Z,7.29
2018-03-24T19:18:10.502Z,7.11
2018-03-24T19:20:38.459Z,6.95
2018-03-24T19:23:06.400Z,6.88
2018-03-24T19:25:34.337Z,6.78
2018-03-24T19:28:02.286Z,6.90
2018-03-24T19:30:30.262Z,7.09
2018-03-24T19:32:58.208Z,7.13
2018-03-24T19:35:26.156Z,7.32
2018-03-24T19:37:54.122Z,7.10
2018-03-24T19:40:22.060Z,7.31
2018-03-24T19:42:50.017Z,7.26
2018-03-24T19:45:18.004Z,7.11
2018-03-24T19:47:45.961Z,6.98
2018-03-24T19:50:13.904Z,6.78
2018-03-24T19:52:41.908Z,6.61
2018-03-24T19:55:09.812Z,6.57
2018-03-24T19:57:38.068Z,6.50
2018-03-24T20:00:06.025Z,6.41
2018-03-24T20:02:33.955Z,6.28
2018-03-24T20:05:01.898Z,6.28
2018-03-24T20:07:29.798Z,6.27
2018-03-24T20:09:57.751Z,6.08
2018-03-24T20:12:25.696Z,6.05
2018-03-24T20:14:53.663Z,5.87
2018-03-24T20:17:21.600Z,5.92
2018-03-24T20:19:49.538Z,5.94
2018-03-24T20:22:17.538Z,5.97
2018-03-24T20:24:45.469Z,5.78
2018-03-24T20:27:13.462Z,5.81
2018-03-24T20:29:41.449Z,5.79
2018-03-24T20:32:09.357Z,5.83
2018-03-24T20:34:38.530Z,5.68
2018-03-24T20:37:06.480Z,5.70
2018-03-24T20:39:34.391Z,5.69
2018-03-24T20:42:02.362Z,5.70
2018-03-24T20:44:30.282Z,5.68
2018-03-24T20:46:58.219Z,5.75
2018-03-24T20:49:26.160Z,5.74
2018-03-24T20:51:54.164Z,5.63
2018-03-24T20:54:22.207Z,5.52
2018-03-24T20:56:50.202Z,5.46
2018-03-24T20:59:18.192Z,5.64
2018-03-24T21:01:46.303Z,5.43
2018-03-24T21:04:14.258Z,5.42
2018-03-24T21:06:42.229Z,5.33
2018-03-24T21:09:10.179Z,5.26
2018-03-24T21:11:38.226Z,5.15
2018-03-24T21:14:06.171Z,5.21
2018-03-24T21:16:34.159Z,5.22
2018-03-24T21:19:02.105Z,5.26
2018-03-24T21:21:30.060Z,5.12
2018-03-24T21:23:58.035Z,5.00
2018-03-24T21:26:26.005Z,5.03
2018-03-24T21:28:53.976Z,5.08
2018-03-24T21:31:21.911Z,4.95
2018-03-24T21:33:49.861Z,4.90
2018-03-24T21:36:17.812Z,5.03
2018-03-24T21:38:45.767Z,4.91
2018-03-24T21:41:13.799Z,4.90
2018-03-24T21:43:41.828Z,4.77
2018-03-24T21:46:09.841Z,4.68
2018-03-24T21:48:37.897Z,4.59
2018-03-24T21:51:06.017Z,4.75
2018-03-24T21:53:33.973Z,4.64
2018-03-24T21:56:02.481Z,4.59
2018-03-24T21:58:30.733Z,4.65
2018-03-24T22:01:01.910Z,4.60
2018-03-24T22:03:29.868Z,4.33
2018-03-24T22:05:57.789Z,4.35
2018-03-24T22:08:25.698Z,4.37
2018-03-24T22:10:54.212Z,4.29
2018-03-24T22:13:22.150Z,4.33
2018-03-24T22:15:50.099Z,4.16
2018-03-24T22:18:18.050Z,4.23
2018-03-24T22:20:46.025Z,4.17
2018-03-24T22:23:13.978Z,4.26
2018-03-24T22:25:42.016Z,4.20
2018-03-24T22:28:09.983Z,4.18
2018-03-24T22:30:37.970Z,4.22
2018-03-24T22:33:05.982Z,4.20
2018-03-24T22:35:33.947Z,4.16
2018-03-24T22:38:01.917Z,4.12
2018-03-24T22:40:29.848Z,4.12
2018-03-24T22:42:57.807Z,3.99
2018-03-24T22:45:25.775Z,3.95
2018-03-24T22:47:53.741Z,4.17
2018-03-24T22:50:21.730Z,4.01
2018-03-24T22:52:49.634Z,3.97
2018-03-24T22:55:17.581Z,4.12
2018-03-24T22:57:45.509Z,4.22
2018-03-24T23:00:13.567Z,4.21
2018-03-24T23:02:41.504Z,4.20
2018-03-24T23:05:09.536Z,4.34
2018-03-24T23:07:37.537Z,4.10
2018-03-24T23:10:05.658Z,4.07
2018-03-24T23:12:33.608Z,4.03
2018-03-24T23:15:01.561Z,4.21
2018-03-24T23:17:29.592Z,4.38
2018-03-24T23:19:57.561Z,4.77
2018-03-24T23:22:25.493Z,4.71
2018-03-24T23:24:53.452Z,4.56
2018-03-24T23:27:21.390Z,4.45
2018-03-24T23:29:49.361Z,4.49
2018-03-24T23:32:17.368Z,4.44
2018-03-24T23:34:45.389Z,4.35
2018-03-24T23:37:13.371Z,4.31
2018-03-24T23:39:41.647Z,4.30
2018-03-24T23:42:09.616Z,4.27
2018-03-24T23:44:37.521Z,4.26
2018-03-24T23:47:05.557Z,4.30
2018-03-24T23:49:33.456Z,4.21
2018-03-24T23:52:01.393Z,4.22
2018-03-24T23:54:29.373Z,4.20
2018-03-24T23:56:57.455Z,4.21
2018-03-24T23:59:25.387Z,4.18
